sensor_id;sensor_type;location;lat;lon;timestamp;P1;P2;P0
58420;PMS7003;44218;55.250;30.178;2022-09-09T00:04:21;1.4;1.2;1
58420;PMS7003;44218;55.250;30.178;2022-09-09T00:08:52;1.2;0.8;0.4
58420;PMS7003;44218;55.250;30.178;2022-09-09T00:13:58;1;1;0.4
58420;PMS7003;44218;55.250;30.178;2022-09-09T00:19:02;1.2;1;1
58420;PMS7003;44218;55.250;30.178;2022-09-09T00:23:19;0.8;0.8;0.8
58420;PMS7003;44218;55.250;30.178;2022-09-09T00:29:03;1.2;1;1
58420;PMS7003;44218;55.250;30.178;2022-09-09T00:33:37;1;1;0.3
58420;PMS7003;44218;55.250;30.178;2022-09-09T00:38:18;1.2;1.2;1
58420;PMS7003;44218;55.250;30.178;2022-09-09T00:43:55;1.4;1.4;1
58420;PMS7003;44218;55.250;30.178;2022-09-09T00:48:49;1.4;1.2;1
58420;PMS7003;44218;55.250;30.178;2022-09-09T00:53:36;0.6;0.6;0.4
58420;PMS7003;44218;55.250;30.178;2022-09-09T00:58:35;0.8;0.6;0.2
58420;PMS7003;44218;55.250;30.178;2022-09-09T01:03:53;0.8;0.6;0.2
58420;PMS7003;44218;55.250;30.178;2022-09-09T01:08:36;0.8;0.8;0.4
58420;PMS7003;44218;55.250;30.178;2022-09-09T01:13:20;1;0.8;0.6
58420;PMS7003;44218;55.250;30.178;2022-09-09T01:18:59;1;0.8;0.4
58420;PMS7003;44218;55.250;30.178;2022-09-09T01:28:57;0.6;0.4;0.2
58420;PMS7003;44218;55.250;30.178;2022-09-09T01:33:16;1.5;1;1
58420;PMS7003;44218;55.250;30.178;2022-09-09T01:38:59;0.8;0.4;0.2
58420;PMS7003;44218;55.250;30.178;2022-09-09T01:43:59;0.6;0.4;0.2
58420;PMS7003;44218;55.250;30.178;2022-09-09T01:48:35;1.2;1;0.6
58420;PMS7003;44218;55.250;30.178;2022-09-09T01:53:16;2.2;1.2;0.8
58420;PMS7003;44218;55.250;30.178;2022-09-09T01:58:41;2;1.4;0.8
58420;PMS7003;44218;55.250;30.178;2022-09-09T02:03:20;1.8;1.2;0.6
58420;PMS7003;44218;55.250;30.178;2022-09-09T02:08:23;1;0.8;0.6
58420;PMS7003;44218;55.250;30.178;2022-09-09T02:13:18;1.6;1.4;1
58420;PMS7003;44218;55.250;30.178;2022-09-09T02:23:47;2.6;2.2;1.4
58420;PMS7003;44218;55.250;30.178;2022-09-09T02:28:37;4.6;2.4;1.4
58420;PMS7003;44218;55.250;30.178;2022-09-09T02:34:00;3;2.3;1.3
58420;PMS7003;44218;55.250;30.178;2022-09-09T02:38:46;3.4;2.6;1.6
58420;PMS7003;44218;55.250;30.178;2022-09-09T02:43:49;4.6;2.6;1.6
58420;PMS7003;44218;55.250;30.178;2022-09-09T02:48:30;4;2.6;1.6
58420;PMS7003;44218;55.250;30.178;2022-09-09T02:53:18;4;2.8;2
58420;PMS7003;44218;55.250;30.178;2022-09-09T02:59:03;5.8;3.6;1.6
58420;PMS7003;44218;55.250;30.178;2022-09-09T03:03:49;5.8;3.8;2.6
58420;PMS7003;44218;55.250;30.178;2022-09-09T03:08:29;4.6;4;2.4
58420;PMS7003;44218;55.250;30.178;2022-09-09T03:13:49;3.8;2.8;2.2
58420;PMS7003;44218;55.250;30.178;2022-09-09T03:18:47;2.4;2.4;1.6
58420;PMS7003;44218;55.250;30.178;2022-09-09T03:23:37;4.2;3.2;1.8
58420;PMS7003;44218;55.250;30.178;2022-09-09T03:28:17;3;2.4;1.8
58420;PMS7003;44218;55.250;30.178;2022-09-09T03:34:01;5.3;3;2
58420;PMS7003;44218;55.250;30.178;2022-09-09T03:38:26;4;2.6;1.6
58420;PMS7003;44218;55.250;30.178;2022-09-09T03:43:28;3.2;2;1.2
58420;PMS7003;44218;55.250;30.178;2022-09-09T03:49:01;3.8;2.8;1.6
58420;PMS7003;44218;55.250;30.178;2022-09-09T03:53:59;3.4;3;2
58420;PMS7003;44218;55.250;30.178;2022-09-09T03:58:49;4.6;3.4;1.8
58420;PMS7003;44218;55.250;30.178;2022-09-09T04:03:28;2.8;2.6;1.6
58420;PMS7003;44218;55.250;30.178;2022-09-09T04:08:25;4.8;3;1.8
58420;PMS7003;44218;55.250;30.178;2022-09-09T04:13:49;4;3.4;2
58420;PMS7003;44218;55.250;30.178;2022-09-09T04:19:01;3.8;3.6;2
58420;PMS7003;44218;55.250;30.178;2022-09-09T04:23:26;4.6;2.8;1.8
58420;PMS7003;44218;55.250;30.178;2022-09-09T04:28:18;4.4;2.6;1.6
58420;PMS7003;44218;55.250;30.178;2022-09-09T04:33:37;1.8;1.5;0.8
58420;PMS7003;44218;55.250;30.178;2022-09-09T04:38:27;3;2.4;1.8
58420;PMS7003;44218;55.250;30.178;2022-09-09T04:43:25;2.2;2.2;1
58420;PMS7003;44218;55.250;30.178;2022-09-09T04:48:39;2;1.6;1.2
58420;PMS7003;44218;55.250;30.178;2022-09-09T04:53:45;1.8;1.4;1.2
58420;PMS7003;44218;55.250;30.178;2022-09-09T04:59:03;2.4;1.4;1
58420;PMS7003;44218;55.250;30.178;2022-09-09T05:03:37;1.2;1;0.6
58420;PMS7003;44218;55.250;30.178;2022-09-09T05:09:03;1.2;1;0.6
58420;PMS7003;44218;55.250;30.178;2022-09-09T05:14:03;1.2;1.2;0.8
58420;PMS7003;44218;55.250;30.178;2022-09-09T05:18:17;1.2;1;0.4
58420;PMS7003;44218;55.250;30.178;2022-09-09T05:23:27;1;0.6;0.6
58420;PMS7003;44218;55.250;30.178;2022-09-09T05:28:27;0.6;0.6;0.4
58420;PMS7003;44218;55.250;30.178;2022-09-09T05:33:41;1;0.8;0.4
58420;PMS7003;44218;55.250;30.178;2022-09-09T05:38:53;1.5;1.3;1
58420;PMS7003;44218;55.250;30.178;2022-09-09T05:43:51;1.2;1;0.8
58420;PMS7003;44218;55.250;30.178;2022-09-09T05:48:52;1.4;1.4;1
58420;PMS7003;44218;55.250;30.178;2022-09-09T05:53:48;0.8;0.8;0.4
58420;PMS7003;44218;55.250;30.178;2022-09-09T05:58:37;2;1.2;1
58420;PMS7003;44218;55.250;30.178;2022-09-09T06:03:50;1;1;0.2
58420;PMS7003;44218;55.250;30.178;2022-09-09T06:08:17;1.6;1.4;1
58420;PMS7003;44218;55.250;30.178;2022-09-09T06:13:27;1.4;1.2;1.2
58420;PMS7003;44218;55.250;30.178;2022-09-09T06:18:47;2;1.6;1.4
58420;PMS7003;44218;55.250;30.178;2022-09-09T06:24:04;2.8;2;1.8
58420;PMS7003;44218;55.250;30.178;2022-09-09T06:28:50;3.4;3.4;2.4
58420;PMS7003;44218;55.250;30.178;2022-09-09T06:33:30;3.6;3.4;2.8
58420;PMS7003;44218;55.250;30.178;2022-09-09T06:38:37;3.5;3.3;2.3
58420;PMS7003;44218;55.250;30.178;2022-09-09T06:43:51;3.2;3;2.6
58420;PMS7003;44218;55.250;30.178;2022-09-09T06:49:05;3.2;3;2.4
58420;PMS7003;44218;55.250;30.178;2022-09-09T06:53:27;3.4;2.8;2.4
58420;PMS7003;44218;55.250;30.178;2022-09-09T06:58:17;3;2.6;2
58420;PMS7003;44218;55.250;30.178;2022-09-09T07:03:27;1.4;1.4;0.8
58420;PMS7003;44218;55.250;30.178;2022-09-09T07:08:17;1.4;1.4;1
58420;PMS7003;44218;55.250;30.178;2022-09-09T07:13:41;1;1;0.6
58420;PMS7003;44218;55.250;30.178;2022-09-09T07:18:41;1;1;1
58420;PMS7003;44218;55.250;30.178;2022-09-09T07:23:49;1.8;1.8;1
58420;PMS7003;44218;55.250;30.178;2022-09-09T07:29:08;2;1.4;1
58420;PMS7003;44218;55.250;30.178;2022-09-09T07:33:17;1.2;1;1
58420;PMS7003;44218;55.250;30.178;2022-09-09T07:39:07;0.8;0.8;0.5
58420;PMS7003;44218;55.250;30.178;2022-09-09T07:44:06;0.6;0.4;0.2
58420;PMS7003;44218;55.250;30.178;2022-09-09T07:48:17;0.3;0.3;0.3
58420;PMS7003;44218;55.250;30.178;2022-09-09T07:53:27;0.6;0.6;0.4
58420;PMS7003;44218;55.250;30.178;2022-09-09T07:58:17;0.4;0;0
58420;PMS7003;44218;55.250;30.178;2022-09-09T08:03:19;0.2;0.2;0.2
58420;PMS7003;44218;55.250;30.178;2022-09-09T08:08:52;0;0;0
58420;PMS7003;44218;55.250;30.178;2022-09-09T08:13:53;0;0;0
58420;PMS7003;44218;55.250;30.178;2022-09-09T08:18:53;0;0;0
58420;PMS7003;44218;55.250;30.178;2022-09-09T08:23:50;0.2;0;0
58420;PMS7003;44218;55.250;30.178;2022-09-09T08:28:17;0;0;0
58420;PMS7003;44218;55.250;30.178;2022-09-09T08:33:51;0;0;0
58420;PMS7003;44218;55.250;30.178;2022-09-09T08:39:06;0;0;0
58420;PMS7003;44218;55.250;30.178;2022-09-09T08:43:27;0;0;0
58420;PMS7003;44218;55.250;30.178;2022-09-09T08:54:09;0.2;0.2;0
58420;PMS7003;44218;55.250;30.178;2022-09-09T08:58:59;0.6;0.6;0.2
58420;PMS7003;44218;55.250;30.178;2022-09-09T09:04:14;1.4;0.8;0.6
58420;PMS7003;44218;55.250;30.178;2022-09-09T09:09:08;0;0;0
58420;PMS7003;44218;55.250;30.178;2022-09-09T09:14:12;0;0;0
58420;PMS7003;44218;55.250;30.178;2022-09-09T09:19:08;0;0;0
58420;PMS7003;44218;55.250;30.178;2022-09-09T09:23:43;0;0;0
58420;PMS7003;44218;55.250;30.178;2022-09-09T09:28:37;0.2;0;0
58420;PMS7003;44218;55.250;30.178;2022-09-09T09:33:26;0;0;0
58420;PMS7003;44218;55.250;30.178;2022-09-09T09:38:18;0;0;0
58420;PMS7003;44218;55.250;30.178;2022-09-09T09:43:41;0;0;0
58420;PMS7003;44218;55.250;30.178;2022-09-09T09:48:39;0;0;0
58420;PMS7003;44218;55.250;30.178;2022-09-09T09:54:09;0;0;0
58420;PMS7003;44218;55.250;30.178;2022-09-09T09:58:50;0;0;0
58420;PMS7003;44218;55.250;30.178;2022-09-09T10:03:50;0;0;0
58420;PMS7003;44218;55.250;30.178;2022-09-09T10:09:03;0;0;0
58420;PMS7003;44218;55.250;30.178;2022-09-09T10:13:52;0;0;0
58420;PMS7003;44218;55.250;30.178;2022-09-09T10:19:46;0;0;0
58420;PMS7003;44218;55.250;30.178;2022-09-09T10:28:37;0;0;0
58420;PMS7003;44218;55.250;30.178;2022-09-09T10:38:52;0;0;0
58420;PMS7003;44218;55.250;30.178;2022-09-09T10:53:51;0;0;0
58420;PMS7003;44218;55.250;30.178;2022-09-09T10:58:40;0;0;0
58420;PMS7003;44218;55.250;30.178;2022-09-09T11:03:58;0;0;0
58420;PMS7003;44218;55.250;30.178;2022-09-09T11:09:09;0;0;0
58420;PMS7003;44218;55.250;30.178;2022-09-09T11:13:19;0;0;0
58420;PMS7003;44218;55.250;30.178;2022-09-09T11:18:28;0;0;0
58420;PMS7003;44218;55.250;30.178;2022-09-09T11:24:06;0;0;0
58420;PMS7003;44218;55.250;30.178;2022-09-09T11:29:06;0;0;0
58420;PMS7003;44218;55.250;30.178;2022-09-09T11:33:48;0;0;0
58420;PMS7003;44218;55.250;30.178;2022-09-09T11:38:47;0;0;0
58420;PMS7003;44218;55.250;30.178;2022-09-09T11:44:12;0;0;0
58420;PMS7003;44218;55.250;30.178;2022-09-09T11:49:05;0;0;0
58420;PMS7003;44218;55.250;30.178;2022-09-09T11:53:27;0;0;0
58420;PMS7003;44218;55.250;30.178;2022-09-09T11:58:37;0;0;0
58420;PMS7003;44218;55.250;30.178;2022-09-09T12:03:46;0;0;0
58420;PMS7003;44218;55.250;30.178;2022-09-09T12:08:18;0;0;0
58420;PMS7003;44218;55.250;30.178;2022-09-09T12:13:38;0;0;0
58420;PMS7003;44218;55.250;30.178;2022-09-09T12:18:39;0;0;0
58420;PMS7003;44218;55.250;30.178;2022-09-09T12:23:52;0;0;0
58420;PMS7003;44218;55.250;30.178;2022-09-09T12:28:52;0;0;0
58420;PMS7003;44218;55.250;30.178;2022-09-09T12:33:21;0;0;0
58420;PMS7003;44218;55.250;30.178;2022-09-09T12:38:49;0;0;0
58420;PMS7003;44218;55.250;30.178;2022-09-09T12:43:50;0;0;0
58420;PMS7003;44218;55.250;30.178;2022-09-09T12:49:03;0;0;0
58420;PMS7003;44218;55.250;30.178;2022-09-09T12:53:26;0;0;0
58420;PMS7003;44218;55.250;30.178;2022-09-09T12:58:28;0;0;0
58420;PMS7003;44218;55.250;30.178;2022-09-09T13:03:18;0;0;0
58420;PMS7003;44218;55.250;30.178;2022-09-09T13:08:29;0;0;0
58420;PMS7003;44218;55.250;30.178;2022-09-09T13:13:51;0;0;0
58420;PMS7003;44218;55.250;30.178;2022-09-09T13:18:53;0;0;0
58420;PMS7003;44218;55.250;30.178;2022-09-09T13:23:55;0;0;0
58420;PMS7003;44218;55.250;30.178;2022-09-09T13:28:43;0;0;0
58420;PMS7003;44218;55.250;30.178;2022-09-09T13:33:49;0;0;0
58420;PMS7003;44218;55.250;30.178;2022-09-09T13:38:55;0;0;0
58420;PMS7003;44218;55.250;30.178;2022-09-09T13:43:19;0;0;0
58420;PMS7003;44218;55.250;30.178;2022-09-09T13:48:28;0;0;0
58420;PMS7003;44218;55.250;30.178;2022-09-09T13:53:17;0;0;0
58420;PMS7003;44218;55.250;30.178;2022-09-09T13:59:04;0;0;0
58420;PMS7003;44218;55.250;30.178;2022-09-09T14:03:39;0;0;0
58420;PMS7003;44218;55.250;30.178;2022-09-09T14:08:20;0;0;0
58420;PMS7003;44218;55.250;30.178;2022-09-09T14:13:18;0;0;0
58420;PMS7003;44218;55.250;30.178;2022-09-09T14:18:58;0.8;0.8;0.2
58420;PMS7003;44218;55.250;30.178;2022-09-09T14:24:08;0;0;0
58420;PMS7003;44218;55.250;30.178;2022-09-09T14:28:36;0;0;0
58420;PMS7003;44218;55.250;30.178;2022-09-09T14:33:48;0;0;0
58420;PMS7003;44218;55.250;30.178;2022-09-09T14:38:30;0;0;0
58420;PMS7003;44218;55.250;30.178;2022-09-09T14:43:28;0.2;0;0
58420;PMS7003;44218;55.250;30.178;2022-09-09T14:48:42;0.2;0.2;0
58420;PMS7003;44218;55.250;30.178;2022-09-09T14:53:42;0;0;0
58420;PMS7003;44218;55.250;30.178;2022-09-09T14:58:48;0.2;0;0
58420;PMS7003;44218;55.250;30.178;2022-09-09T15:03:53;0.2;0.2;0
58420;PMS7003;44218;55.250;30.178;2022-09-09T15:08:42;0.2;0.2;0
58420;PMS7003;44218;55.250;30.178;2022-09-09T15:14:04;0.3;0;0
58420;PMS7003;44218;55.250;30.178;2022-09-09T15:19:06;0.4;0.2;0
58420;PMS7003;44218;55.250;30.178;2022-09-09T15:23:28;0.6;0.6;0.4
58420;PMS7003;44218;55.250;30.178;2022-09-09T15:28:28;0.8;0.8;0.6
58420;PMS7003;44218;55.250;30.178;2022-09-09T15:33:18;4.4;4;2.4
58420;PMS7003;44218;55.250;30.178;2022-09-09T15:39:04;4;3.2;2.6
58420;PMS7003;44218;55.250;30.178;2022-09-09T15:43:50;8.2;6.8;4.8
58420;PMS7003;44218;55.250;30.178;2022-09-09T15:48:58;8;6.8;4.8
58420;PMS7003;44218;55.250;30.178;2022-09-09T15:53:55;6.6;5.8;4.4
58420;PMS7003;44218;55.250;30.178;2022-09-09T15:58:44;4.4;3.8;3
58420;PMS7003;44218;55.250;30.178;2022-09-09T16:03:37;4.2;3.4;2.4
58420;PMS7003;44218;55.250;30.178;2022-09-09T16:08:51;2.4;1.8;1.6
58420;PMS7003;44218;55.250;30.178;2022-09-09T16:13:18;0.8;0.8;0.8
58420;PMS7003;44218;55.250;30.178;2022-09-09T16:18:18;0.6;0.2;0.2
58420;PMS7003;44218;55.250;30.178;2022-09-09T16:23:28;0.6;0.6;0.4
58420;PMS7003;44218;55.250;30.178;2022-09-09T16:29:04;1.2;0.8;0.6
58420;PMS7003;44218;55.250;30.178;2022-09-09T16:33:52;0.4;0.4;0
58420;PMS7003;44218;55.250;30.178;2022-09-09T16:38:28;1;0.8;0.2
58420;PMS7003;44218;55.250;30.178;2022-09-09T16:43:18;1.2;0.6;0.6
58420;PMS7003;44218;55.250;30.178;2022-09-09T16:48:57;1;1;0.2
58420;PMS7003;44218;55.250;30.178;2022-09-09T16:54:04;0.8;0.6;0.4
58420;PMS7003;44218;55.250;30.178;2022-09-09T16:58:28;1.2;1;0.6
58420;PMS7003;44218;55.250;30.178;2022-09-09T17:03:18;1;0.4;0.4
58420;PMS7003;44218;55.250;30.178;2022-09-09T17:08:29;2.2;1.6;1.4
58420;PMS7003;44218;55.250;30.178;2022-09-09T17:13:28;2.2;2;1.2
58420;PMS7003;44218;55.250;30.178;2022-09-09T17:18:42;2;2;1.5
58420;PMS7003;44218;55.250;30.178;2022-09-09T17:23:30;2;1.6;1.2
58420;PMS7003;44218;55.250;30.178;2022-09-09T17:28:50;1.4;1.4;1.2
58420;PMS7003;44218;55.250;30.178;2022-09-09T17:34:04;1.4;1.2;0.8
58420;PMS7003;44218;55.250;30.178;2022-09-09T17:38:40;2.2;1.6;1.4
58420;PMS7003;44218;55.250;30.178;2022-09-09T17:43:52;1.4;1;0.8
58420;PMS7003;44218;55.250;30.178;2022-09-09T17:48:54;1.8;1.4;1.2
58420;PMS7003;44218;55.250;30.178;2022-09-09T17:54:07;2.6;2;1.6
58420;PMS7003;44218;55.250;30.178;2022-09-09T17:58:28;2.2;2.2;1.4
58420;PMS7003;44218;55.250;30.178;2022-09-09T18:03:58;2.6;2;1.6
58420;PMS7003;44218;55.250;30.178;2022-09-09T18:09:09;2.2;1.8;1.4
58420;PMS7003;44218;55.250;30.178;2022-09-09T18:13:53;1.6;1.6;1.6
58420;PMS7003;44218;55.250;30.178;2022-09-09T18:18:42;3;2.3;2.3
58420;PMS7003;44218;55.250;30.178;2022-09-09T18:23:44;3.2;2.8;2.4
58420;PMS7003;44218;55.250;30.178;2022-09-09T18:28:53;3.4;2.8;2
58420;PMS7003;44218;55.250;30.178;2022-09-09T18:33:37;3.6;3.4;2.8
58420;PMS7003;44218;55.250;30.178;2022-09-09T18:38:34;2.2;2;1.6
58420;PMS7003;44218;55.250;30.178;2022-09-09T18:44:07;2.4;2.2;2
58420;PMS7003;44218;55.250;30.178;2022-09-09T18:48:18;2.6;2.2;1.6
58420;PMS7003;44218;55.250;30.178;2022-09-09T18:53:28;2.2;1.8;1.6
58420;PMS7003;44218;55.250;30.178;2022-09-09T18:59:05;2.2;2;1.8
58420;PMS7003;44218;55.250;30.178;2022-09-09T19:04:05;1.6;1.4;1.2
58420;PMS7003;44218;55.250;30.178;2022-09-09T19:09:02;2;2;1.4
58420;PMS7003;44218;55.250;30.178;2022-09-09T19:13:40;1.6;1.4;1.2
58420;PMS7003;44218;55.250;30.178;2022-09-09T19:19:04;2;2;1.3
58420;PMS7003;44218;55.250;30.178;2022-09-09T19:24:10;2.4;2;1.6
58420;PMS7003;44218;55.250;30.178;2022-09-09T19:28:36;2.4;2;1.6
58420;PMS7003;44218;55.250;30.178;2022-09-09T19:33:28;1.8;1.8;1.2
58420;PMS7003;44218;55.250;30.178;2022-09-09T19:38:26;1.6;1.6;1.4
58420;PMS7003;44218;55.250;30.178;2022-09-09T19:43:18;2.2;2;1.2
58420;PMS7003;44218;55.250;30.178;2022-09-09T19:48:38;2;1.4;1.2
58420;PMS7003;44218;55.250;30.178;2022-09-09T19:53:18;1.2;1;1
58420;PMS7003;44218;55.250;30.178;2022-09-09T19:59:06;1.6;1.4;1
58420;PMS7003;44218;55.250;30.178;2022-09-09T20:04:07;1.2;1.2;0.8
58420;PMS7003;44218;55.250;30.178;2022-09-09T20:08:40;1.6;1.2;1
58420;PMS7003;44218;55.250;30.178;2022-09-09T20:14:06;1.4;1.4;1
58420;PMS7003;44218;55.250;30.178;2022-09-09T20:18:50;1;1;1
58420;PMS7003;44218;55.250;30.178;2022-09-09T20:24:07;0.5;0.5;0.3
58420;PMS7003;44218;55.250;30.178;2022-09-09T20:28:16;1.4;1.2;1
58420;PMS7003;44218;55.250;30.178;2022-09-09T20:33:16;0.8;0.8;0.8
58420;PMS7003;44218;55.250;30.178;2022-09-09T20:39:07;1.2;1;0.8
58420;PMS7003;44218;55.250;30.178;2022-09-09T20:43:51;1;0.8;0.6
58420;PMS7003;44218;55.250;30.178;2022-09-09T20:48:40;1;1;0.6
58420;PMS7003;44218;55.250;30.178;2022-09-09T20:53:59;0.8;0.8;0.6
58420;PMS7003;44218;55.250;30.178;2022-09-09T20:58:52;0.8;0.6;0.6
58420;PMS7003;44218;55.250;30.178;2022-09-09T21:03:29;1.2;1;0.8
58420;PMS7003;44218;55.250;30.178;2022-09-09T21:08:44;0.8;0.6;0.4
58420;PMS7003;44218;55.250;30.178;2022-09-09T21:14:04;0.8;0.8;0.8
58420;PMS7003;44218;55.250;30.178;2022-09-09T21:18:18;1.4;1.4;1.4
58420;PMS7003;44218;55.250;30.178;2022-09-09T21:23:28;1.5;1.5;1.3
58420;PMS7003;44218;55.250;30.178;2022-09-09T21:29:06;1.6;1.2;0.8
58420;PMS7003;44218;55.250;30.178;2022-09-09T21:34:04;1.6;1.4;1.4
58420;PMS7003;44218;55.250;30.178;2022-09-09T21:39:04;1.6;1.6;1
58420;PMS7003;44218;55.250;30.178;2022-09-09T21:43:42;1.4;1.2;1
58420;PMS7003;44218;55.250;30.178;2022-09-09T21:49:06;1.8;1.4;1.2
58420;PMS7003;44218;55.250;30.178;2022-09-09T21:54:04;1.8;1.2;1
58420;PMS7003;44218;55.250;30.178;2022-09-09T21:58:36;1.8;1.4;1.4
58420;PMS7003;44218;55.250;30.178;2022-09-09T22:03:36;2;1.6;1.4
58420;PMS7003;44218;55.250;30.178;2022-09-09T22:08:28;2;1.8;1.4
58420;PMS7003;44218;55.250;30.178;2022-09-09T22:13:18;2.4;1.8;1.8
58420;PMS7003;44218;55.250;30.178;2022-09-09T22:18:18;1.4;1.2;1.2
58420;PMS7003;44218;55.250;30.178;2022-09-09T22:23:40;1.5;1.5;1.3
58420;PMS7003;44218;55.250;30.178;2022-09-09T22:28:50;1.4;1.2;1.2
58420;PMS7003;44218;55.250;30.178;2022-09-09T22:33:42;1.6;1.6;1
58420;PMS7003;44218;55.250;30.178;2022-09-09T22:39:06;1.4;1;1
58420;PMS7003;44218;55.250;30.178;2022-09-09T22:43:40;1.6;1.2;1.2
58420;PMS7003;44218;55.250;30.178;2022-09-09T22:48:48;1.8;1.6;1.4
58420;PMS7003;44218;55.250;30.178;2022-09-09T22:54:04;2.6;2.2;1.4
58420;PMS7003;44218;55.250;30.178;2022-09-09T22:58:34;1.4;1.2;1
58420;PMS7003;44218;55.250;30.178;2022-09-09T23:03:29;1.6;1.2;1.2
58420;PMS7003;44218;55.250;30.178;2022-09-09T23:08:30;2;1.8;1.2
58420;PMS7003;44218;55.250;30.178;2022-09-09T23:14:03;1.2;1.2;1.2
58420;PMS7003;44218;55.250;30.178;2022-09-09T23:18:52;1.6;1.4;0.8
58420;PMS7003;44218;55.250;30.178;2022-09-09T23:23:56;1.3;1.3;1
58420;PMS7003;44218;55.250;30.178;2022-09-09T23:28:56;1.2;1.2;1
58420;PMS7003;44218;55.250;30.178;2022-09-09T23:33:32;1;1;1
58420;PMS7003;44218;55.250;30.178;2022-09-09T23:38:27;1.2;1;0.8
58420;PMS7003;44218;55.250;30.178;2022-09-09T23:43:36;1;0.8;0.6
58420;PMS7003;44218;55.250;30.178;2022-09-09T23:48:26;1.4;1.2;1
58420;PMS7003;44218;55.250;30.178;2022-09-09T23:53:28;1.2;0.8;0.8
58420;PMS7003;44218;55.250;30.178;2022-09-09T23:58:52;0.8;0.8;0.8
